#metar

Here can be your content

Promote Yourself on Twipu

Promote Yourself on Twipu
LPPT METAR
17 minutes ago

LPPT 192030Z 29008KT 9999 FEW030 18/14 Q1016 #aviation #airplanes #metar #weather #avgeek #aviationlovers

0
0
0

LPPT 192000Z 30009KT 9999 FEW035 19/14 Q1016 #aviation #airplanes #metar #weather #avgeek #aviationlovers

0
1
0

#METAR LFBO 192000Z AUTO 01005KT 340V040 CAVOK 24/16 Q1013 TEMPO 4000 SHRA SCT015CB BKN030

0
0
0

LPPT 191930Z 32009KT 9999 FEW035 20/14 Q1016 #aviation #airplanes #metar #weather #avgeek #aviationlovers

0
0
0

#METAR LFBO 191930Z AUTO 01005KT 340V050 CAVOK 25/15 Q1013 TEMPO 4000 SHRA SCT015CB BKN030

0
0
0
METAR
2 hours ago

【定時POST】羽田空港:19-06-20 04:00 風向風速:ENE(060度)5.61m/s 気温/22℃ 露点/20℃ 湿度/88% #METAR

0
0
0

LPPT 191900Z 31008KT 280V340 9999 FEW030 21/14 Q1016 #aviation #airplanes #metar #weather #avgeek #aviationlovers

0
0
0

#METAR LFBO 191900Z AUTO 35008KT CAVOK 25/15 Q1013 TEMPO 33015G28KT 4000 SHRA SCT015CB BKN030

0
0
0

20日4時現在の天気 札幌 ☁曇 南南東1㎧ 11℃ 仙台 ☁曇 西1㎧ 18℃ 東京 ☁曇 北4㎧ 22℃ 名古屋 ⭐快晴 北2㎧ 21℃ 大阪 ⭐晴 南2㎧ 21℃ 福岡 ⭐快晴 北西1㎧ 21℃ 那覇 ☔雨 西南西6㎧ 26℃ #METAR

0
0
0

LPPT 191830Z 30007KT 250V350 9999 FEW020 SCT035 21/14 Q1016 #aviation #airplanes #metar #weather #avgeek #aviationlovers

0
0
0

#METAR LFBO 191830Z AUTO 36009KT CAVOK 26/15 Q1013 TEMPO 33015G28KT 4000 SHRA SCT015CB BKN030

0
0
0

LPPT 191800Z 28007KT 260V320 9999 FEW020 SCT035 21/13 Q1016 #aviation #airplanes #metar #weather #avgeek #aviationlovers

0
0
0

#METAR LFBO 191800Z AUTO 36009KT CAVOK 26/15 Q1013 TEMPO 33015G28KT 4000 -TSRA SCT050CB BKN070

0
0
0

LPPT 191730Z 26008KT 220V310 9999 FEW020 SCT035 23/13 Q1016 #aviation #airplanes #metar #weather #avgeek #aviationlovers

0
0
0

#METAR LFBO 191730Z AUTO 35009KT 320V040 CAVOK 26/15 Q1013 TEMPO 33015G28KT 4000 -TSRA SCT050CB BKN070

0
0
0
METAR
4 hours ago

【定時POST】羽田空港:19-06-20 02:00 風向風速:S(180度)2.55m/s 気温/22℃ 露点/20℃ 湿度/88% #METAR

0
0
0

LPPT 191700Z 26007KT 230V290 9999 FEW020 SCT038 22/14 Q1016 #aviation #airplanes #metar #weather #avgeek #aviationlovers

0
0
0

#METAR LFBO 191700Z AUTO 35010KT 320V020 CAVOK 27/15 Q1012 TEMPO 4000 SHRA SCT050CB BKN070

0
0
0

20日2時現在の天気 札幌 仙台 東京 名古屋 大阪 福岡 那覇 #METAR

0
0
0

LPPT 191630Z 24008KT 220V280 9999 FEW025 BKN045 22/14 Q1016 #aviation #airplanes #metar #weather #avgeek #aviationlovers

0
0
0
Next Page